sensor_id;sensor_type;location;lat;lon;timestamp;pressure;altitude;pressure_sealevel;temperature;humidity
59757;BME280;45631;51.962;5.974;2023-04-25T00:02:13;100842.19;;;5.90;100.00
59757;BME280;45631;51.962;5.974;2023-04-25T00:04:41;100847.50;;;5.87;100.00
59757;BME280;45631;51.962;5.974;2023-04-25T00:07:12;100850.91;;;5.89;100.00
59757;BME280;45631;51.962;5.974;2023-04-25T00:09:40;100846.03;;;5.82;100.00
59757;BME280;45631;51.962;5.974;2023-04-25T00:12:08;100851.19;;;5.83;100.00
59757;BME280;45631;51.962;5.974;2023-04-25T00:14:36;100855.78;;;5.78;100.00
59757;BME280;45631;51.962;5.974;2023-04-25T00:17:04;100858.72;;;5.70;100.00
59757;BME280;45631;51.962;5.974;2023-04-25T00:19:32;100863.28;;;5.65;100.00
59757;BME280;45631;51.962;5.974;2023-04-25T00:22:01;100863.16;;;5.68;100.00
59757;BME280;45631;51.962;5.974;2023-04-25T00:24:31;100866.97;;;5.61;100.00
59757;BME280;45631;51.962;5.974;2023-04-25T00:26:59;100880.41;;;5.52;100.00
59757;BME280;45631;51.962;5.974;2023-04-25T00:29:27;100885.69;;;5.50;100.00
59757;BME280;45631;51.962;5.974;2023-04-25T00:31:55;100876.63;;;5.38;100.00
59757;BME280;45631;51.962;5.974;2023-04-25T00:34:23;100879.13;;;5.41;100.00
59757;BME280;45631;51.962;5.974;2023-04-25T00:36:52;100878.38;;;5.38;100.00
59757;BME280;45631;51.962;5.974;2023-04-25T00:39:20;100882.63;;;5.40;100.00
59757;BME280;45631;51.962;5.974;2023-04-25T00:41:50;100886.94;;;5.41;100.00
59757;BME280;45631;51.962;5.974;2023-04-25T00:44:20;100884.25;;;5.43;100.00
59757;BME280;45631;51.962;5.974;2023-04-25T00:46:48;100881.00;;;5.38;100.00
59757;BME280;45631;51.962;5.974;2023-04-25T00:49:17;100883.75;;;5.35;100.00
59757;BME280;45631;51.962;5.974;2023-04-25T00:51:45;100887.31;;;5.32;100.00
59757;BME280;45631;51.962;5.974;2023-04-25T00:54:13;100885.63;;;5.31;100.00
59757;BME280;45631;51.962;5.974;2023-04-25T00:56:42;100889.09;;;5.32;100.00
59757;BME280;45631;51.962;5.974;2023-04-25T00:59:13;100888.16;;;5.33;100.00
59757;BME280;45631;51.962;5.974;2023-04-25T01:01:41;100890.16;;;5.28;100.00
59757;BME280;45631;51.962;5.974;2023-04-25T01:04:11;100887.47;;;5.29;100.00
59757;BME280;45631;51.962;5.974;2023-04-25T01:06:39;100891.72;;;5.32;100.00
59757;BME280;45631;51.962;5.974;2023-04-25T01:09:07;100891.72;;;5.32;100.00
59757;BME280;45631;51.962;5.974;2023-04-25T01:11:36;100888.69;;;5.41;100.00
59757;BME280;45631;51.962;5.974;2023-04-25T01:14:04;100888.81;;;5.38;100.00
59757;BME280;45631;51.962;5.974;2023-04-25T01:16:33;100893.00;;;5.42;100.00
59757;BME280;45631;51.962;5.974;2023-04-25T01:19:05;100893.91;;;5.41;100.00
59757;BME280;45631;51.962;5.974;2023-04-25T01:21:39;100897.44;;;5.40;100.00
59757;BME280;45631;51.962;5.974;2023-04-25T01:24:07;100898.28;;;5.40;100.00
59757;BME280;45631;51.962;5.974;2023-04-25T01:26:35;100901.03;;;5.37;100.00
59757;BME280;45631;51.962;5.974;2023-04-25T01:29:04;100901.88;;;5.38;100.00
59757;BME280;45631;51.962;5.974;2023-04-25T01:31:35;100903.56;;;5.39;100.00
59757;BME280;45631;51.962;5.974;2023-04-25T01:34:03;100914.91;;;5.38;100.00
59757;BME280;45631;51.962;5.974;2023-04-25T01:36:32;100910.72;;;5.34;100.00
59757;BME280;45631;51.962;5.974;2023-04-25T01:39:04;100914.38;;;5.30;100.00
59757;BME280;45631;51.962;5.974;2023-04-25T01:41:33;100908.44;;;5.26;100.00
59757;BME280;45631;51.962;5.974;2023-04-25T01:44:02;100909.31;;;5.27;100.00
59757;BME280;45631;51.962;5.974;2023-04-25T01:46:30;100912.56;;;5.32;100.00
59757;BME280;45631;51.962;5.974;2023-04-25T01:48:59;100911.00;;;5.28;100.00
59757;BME280;45631;51.962;5.974;2023-04-25T01:51:27;100912.09;;;5.22;100.00
59757;BME280;45631;51.962;5.974;2023-04-25T01:53:56;100910.44;;;5.19;100.00
59757;BME280;45631;51.962;5.974;2023-04-25T01:56:31;100919.22;;;5.18;100.00
59757;BME280;45631;51.962;5.974;2023-04-25T01:58:59;100912.94;;;5.22;100.00
59757;BME280;45631;51.962;5.974;2023-04-25T02:01:27;100919.06;;;5.21;100.00
59757;BME280;45631;51.962;5.974;2023-04-25T02:03:56;100916.47;;;5.21;100.00
59757;BME280;45631;51.962;5.974;2023-04-25T02:06:24;100925.13;;;5.22;100.00
59757;BME280;45631;51.962;5.974;2023-04-25T02:08:52;100927.88;;;5.19;100.00
59757;BME280;45631;51.962;5.974;2023-04-25T02:11:23;100931.38;;;5.18;100.00
59757;BME280;45631;51.962;5.974;2023-04-25T02:13:53;100932.25;;;5.18;100.00
59757;BME280;45631;51.962;5.974;2023-04-25T02:16:21;100930.59;;;5.16;100.00
59757;BME280;45631;51.962;5.974;2023-04-25T02:18:51;100933.81;;;5.22;100.00
59757;BME280;45631;51.962;5.974;2023-04-25T02:21:20;100935.38;;;5.27;100.00
59757;BME280;45631;51.962;5.974;2023-04-25T02:23:48;100938.88;;;5.25;100.00
59757;BME280;45631;51.962;5.974;2023-04-25T02:26:19;100937.09;;;5.28;100.00
59757;BME280;45631;51.962;5.974;2023-04-25T02:28:48;100938.75;;;5.29;100.00
59757;BME280;45631;51.962;5.974;2023-04-25T02:31:17;100939.72;;;5.26;100.00
59757;BME280;45631;51.962;5.974;2023-04-25T02:33:46;100940.06;;;5.18;100.00
59757;BME280;45631;51.962;5.974;2023-04-25T02:36:14;100939.41;;;5.13;100.00
59757;BME280;45631;51.962;5.974;2023-04-25T02:38:42;100944.63;;;5.13;100.00
59757;BME280;45631;51.962;5.974;2023-04-25T02:41:13;100944.75;;;5.10;100.00
59757;BME280;45631;51.962;5.974;2023-04-25T02:43:41;100944.75;;;5.10;100.00
59757;BME280;45631;51.962;5.974;2023-04-25T02:46:09;100943.34;;;5.01;100.00
59757;BME280;45631;51.962;5.974;2023-04-25T02:48:39;100944.22;;;5.02;100.00
59757;BME280;45631;51.962;5.974;2023-04-25T02:51:07;100947.78;;;4.99;100.00
59757;BME280;45631;51.962;5.974;2023-04-25T02:53:35;100944.44;;;4.96;100.00
59757;BME280;45631;51.962;5.974;2023-04-25T02:56:04;100954.31;;;4.87;100.00
59757;BME280;45631;51.962;5.974;2023-04-25T02:58:32;100951.41;;;4.95;100.00
59757;BME280;45631;51.962;5.974;2023-04-25T03:01:00;100952.13;;;4.99;100.00
59757;BME280;45631;51.962;5.974;2023-04-25T03:03:28;100956.63;;;4.95;100.00
59757;BME280;45631;51.962;5.974;2023-04-25T03:06:01;100950.69;;;4.91;100.00
59757;BME280;45631;51.962;5.974;2023-04-25T03:08:29;100956.63;;;4.95;100.00
59757;BME280;45631;51.962;5.974;2023-04-25T03:10:59;100946.31;;;4.92;100.00
59757;BME280;45631;51.962;5.974;2023-04-25T03:13:27;100946.50;;;4.87;100.00
59757;BME280;45631;51.962;5.974;2023-04-25T03:15:56;100951.72;;;4.87;100.00
59757;BME280;45631;51.962;5.974;2023-04-25T03:18:24;100953.72;;;4.81;100.00
59757;BME280;45631;51.962;5.974;2023-04-25T03:20:52;100959.75;;;4.81;100.00
59757;BME280;45631;51.962;5.974;2023-04-25T03:23:22;100962.50;;;4.78;100.00
59757;BME280;45631;51.962;5.974;2023-04-25T03:25:50;100967.97;;;4.72;100.00
59757;BME280;45631;51.962;5.974;2023-04-25T03:28:20;100976.56;;;4.74;100.00
59757;BME280;45631;51.962;5.974;2023-04-25T03:30:48;100975.66;;;4.75;100.00
59757;BME280;45631;51.962;5.974;2023-04-25T03:33:19;100973.16;;;4.72;100.00
59757;BME280;45631;51.962;5.974;2023-04-25T03:35:47;100975.88;;;4.69;100.00
59757;BME280;45631;51.962;5.974;2023-04-25T03:38:17;100969.81;;;4.68;100.00
59757;BME280;45631;51.962;5.974;2023-04-25T03:40:47;100971.03;;;4.60;100.00
59757;BME280;45631;51.962;5.974;2023-04-25T03:43:15;100964.91;;;4.61;100.00
59757;BME280;45631;51.962;5.974;2023-04-25T03:45:43;100976.34;;;4.56;100.00
59757;BME280;45631;51.962;5.974;2023-04-25T03:48:11;100976.47;;;4.53;100.00
59757;BME280;45631;51.962;5.974;2023-04-25T03:50:42;100984.53;;;4.47;100.00
59757;BME280;45631;51.962;5.974;2023-04-25T03:53:10;100981.94;;;4.47;100.00
59757;BME280;45631;51.962;5.974;2023-04-25T03:55:38;100975.97;;;4.44;100.00
59757;BME280;45631;51.962;5.974;2023-04-25T03:58:10;100977.63;;;4.46;100.00
59757;BME280;45631;51.962;5.974;2023-04-25T04:00:38;100987.16;;;4.46;100.00
59757;BME280;45631;51.962;5.974;2023-04-25T04:03:06;100979.34;;;4.46;100.00
59757;BME280;45631;51.962;5.974;2023-04-25T04:05:35;100981.06;;;4.47;100.00
59757;BME280;45631;51.962;5.974;2023-04-25T04:08:04;100978.78;;;4.37;100.00
59757;BME280;45631;51.962;5.974;2023-04-25T04:10:35;100987.69;;;4.32;100.00
59757;BME280;45631;51.962;5.974;2023-04-25T04:13:03;100989.50;;;4.30;100.00
59757;BME280;45631;51.962;5.974;2023-04-25T04:15:32;100987.16;;;4.22;100.00
59757;BME280;45631;51.962;5.974;2023-04-25T04:18:00;100986.44;;;4.18;100.00
59757;BME280;45631;51.962;5.974;2023-04-25T04:20:32;100993.56;;;4.13;100.00
59757;BME280;45631;51.962;5.974;2023-04-25T04:23:00;100996.00;;;4.18;100.00
59757;BME280;45631;51.962;5.974;2023-04-25T04:25:30;100999.22;;;4.01;100.00
59757;BME280;45631;51.962;5.974;2023-04-25T04:27:58;101005.91;;;4.08;100.00
59757;BME280;45631;51.962;5.974;2023-04-25T04:30:27;101005.13;;;4.04;100.00
59757;BME280;45631;51.962;5.974;2023-04-25T04:32:57;101011.53;;;3.96;100.00
59757;BME280;45631;51.962;5.974;2023-04-25T04:35:25;101008.13;;;3.94;100.00
59757;BME280;45631;51.962;5.974;2023-04-25T04:37:53;101007.41;;;3.88;100.00
59757;BME280;45631;51.962;5.974;2023-04-25T04:40:22;101014.38;;;3.88;100.00
59757;BME280;45631;51.962;5.974;2023-04-25T04:42:52;101010.38;;;3.79;100.00
59757;BME280;45631;51.962;5.974;2023-04-25T04:45:26;101011.31;;;3.77;100.00
59757;BME280;45631;51.962;5.974;2023-04-25T04:47:54;101024.38;;;3.75;100.00
59757;BME280;45631;51.962;5.974;2023-04-25T04:50:25;101021.81;;;3.73;100.00
59757;BME280;45631;51.962;5.974;2023-04-25T04:52:54;101020.81;;;3.78;100.00
59757;BME280;45631;51.962;5.974;2023-04-25T04:55:22;101025.28;;;3.74;100.00
59757;BME280;45631;51.962;5.974;2023-04-25T04:57:50;101035.69;;;3.74;100.00
59757;BME280;45631;51.962;5.974;2023-04-25T05:00:18;101039.81;;;3.80;100.00
59757;BME280;45631;51.962;5.974;2023-04-25T05:02:50;101058.78;;;3.83;100.00
59757;BME280;45631;51.962;5.974;2023-04-25T05:05:19;101055.44;;;3.80;100.00
59757;BME280;45631;51.962;5.974;2023-04-25T05:07:48;101057.09;;;3.82;100.00
59757;BME280;45631;51.962;5.974;2023-04-25T05:10:16;101067.19;;;3.92;100.00
59757;BME280;45631;51.962;5.974;2023-04-25T05:12:45;101067.91;;;3.95;100.00
59757;BME280;45631;51.962;5.974;2023-04-25T05:15:13;101063.47;;;3.99;100.00
59757;BME280;45631;51.962;5.974;2023-04-25T05:17:41;101065.75;;;4.08;100.00
59757;BME280;45631;51.962;5.974;2023-04-25T05:20:10;101063.22;;;4.06;100.00
59757;BME280;45631;51.962;5.974;2023-04-25T05:22:38;101071.09;;;4.05;100.00
59757;BME280;45631;51.962;5.974;2023-04-25T05:25:09;101078.78;;;4.08;100.00
59757;BME280;45631;51.962;5.974;2023-04-25T05:27:37;101073.63;;;4.06;100.00
59757;BME280;45631;51.962;5.974;2023-04-25T05:30:07;101084.63;;;4.15;100.00
59757;BME280;45631;51.962;5.974;2023-04-25T05:32:35;101087.38;;;4.10;100.00
59757;BME280;45631;51.962;5.974;2023-04-25T05:35:04;101089.78;;;4.16;100.00
59757;BME280;45631;51.962;5.974;2023-04-25T05:37:33;101083.56;;;4.20;100.00
59757;BME280;45631;51.962;5.974;2023-04-25T05:40:02;101088.53;;;4.27;100.00
59757;BME280;45631;51.962;5.974;2023-04-25T05:42:34;101094.69;;;4.26;100.00
59757;BME280;45631;51.962;5.974;2023-04-25T05:45:06;101091.00;;;4.31;100.00
59757;BME280;45631;51.962;5.974;2023-04-25T05:47:34;101094.19;;;4.39;100.00
59757;BME280;45631;51.962;5.974;2023-04-25T05:50:03;101094.25;;;4.38;100.00
59757;BME280;45631;51.962;5.974;2023-04-25T05:52:31;101096.56;;;4.46;100.00
59757;BME280;45631;51.962;5.974;2023-04-25T05:54:59;101107.72;;;4.49;100.00
59757;BME280;45631;51.962;5.974;2023-04-25T05:57:27;101111.91;;;4.53;100.00
59757;BME280;45631;51.962;5.974;2023-04-25T05:59:57;101116.22;;;4.54;100.00
59757;BME280;45631;51.962;5.974;2023-04-25T06:02:25;101129.19;;;4.56;100.00
59757;BME280;45631;51.962;5.974;2023-04-25T06:04:53;101131.16;;;4.49;100.00
59757;BME280;45631;51.962;5.974;2023-04-25T06:07:21;101129.38;;;4.51;100.00
59757;BME280;45631;51.962;5.974;2023-04-25T06:09:49;101136.13;;;4.57;100.00
59757;BME280;45631;51.962;5.974;2023-04-25T06:12:17;101136.97;;;4.57;100.00
59757;BME280;45631;51.962;5.974;2023-04-25T06:14:49;101137.66;;;4.63;100.00
59757;BME280;45631;51.962;5.974;2023-04-25T06:17:18;101136.25;;;4.78;100.00
59757;BME280;45631;51.962;5.974;2023-04-25T06:19:46;101138.84;;;4.78;100.00
59757;BME280;45631;51.962;5.974;2023-04-25T06:22:14;101139.56;;;4.83;100.00
59757;BME280;45631;51.962;5.974;2023-04-25T06:24:43;101149.72;;;4.89;100.00
59757;BME280;45631;51.962;5.974;2023-04-25T06:27:14;101150.69;;;4.86;100.00
59757;BME280;45631;51.962;5.974;2023-04-25T06:29:43;101155.41;;;5.00;100.00
59757;BME280;45631;51.962;5.974;2023-04-25T06:32:11;101145.72;;;5.04;100.00
59757;BME280;45631;51.962;5.974;2023-04-25T06:34:43;101141.97;;;5.11;100.00
59757;BME280;45631;51.962;5.974;2023-04-25T06:37:15;101145.94;;;5.21;100.00
59757;BME280;45631;51.962;5.974;2023-04-25T06:39:43;101149.66;;;5.38;100.00
59757;BME280;45631;51.962;5.974;2023-04-25T06:42:11;101148.41;;;5.48;100.00
59757;BME280;45631;51.962;5.974;2023-04-25T06:44:39;101155.19;;;5.52;100.00
59757;BME280;45631;51.962;5.974;2023-04-25T06:47:07;101152.94;;;5.65;100.00
59757;BME280;45631;51.962;5.974;2023-04-25T06:49:36;101153.69;;;5.69;100.00
59757;BME280;45631;51.962;5.974;2023-04-25T06:52:05;101160.41;;;5.74;100.00
59757;BME280;45631;51.962;5.974;2023-04-25T06:54:33;101153.72;;;5.89;100.00
59757;BME280;45631;51.962;5.974;2023-04-25T06:57:01;101155.16;;;5.97;100.00
59757;BME280;45631;51.962;5.974;2023-04-25T06:59:29;101157.50;;;6.04;100.00
59757;BME280;45631;51.962;5.974;2023-04-25T07:01:57;101164.91;;;6.15;100.00
59757;BME280;45631;51.962;5.974;2023-04-25T07:04:25;101170.00;;;6.18;100.00
59757;BME280;45631;51.962;5.974;2023-04-25T07:06:54;101172.94;;;6.31;100.00
59757;BME280;45631;51.962;5.974;2023-04-25T07:09:23;101165.69;;;6.38;100.00
59757;BME280;45631;51.962;5.974;2023-04-25T07:11:52;101172.81;;;6.34;100.00
59757;BME280;45631;51.962;5.974;2023-04-25T07:14:20;101177.69;;;6.42;100.00
59757;BME280;45631;51.962;5.974;2023-04-25T07:16:48;101174.63;;;6.53;100.00
59757;BME280;45631;51.962;5.974;2023-04-25T07:19:16;101176.78;;;6.64;100.00
59757;BME280;45631;51.962;5.974;2023-04-25T07:21:47;101182.47;;;6.73;100.00
59757;BME280;45631;51.962;5.974;2023-04-25T07:24:16;101190.88;;;6.80;100.00
59757;BME280;45631;51.962;5.974;2023-04-25T07:26:46;101187.69;;;6.94;100.00
59757;BME280;45631;51.962;5.974;2023-04-25T07:29:14;101188.69;;;7.10;100.00
59757;BME280;45631;51.962;5.974;2023-04-25T07:31:42;101191.66;;;7.22;100.00
59757;BME280;45631;51.962;5.974;2023-04-25T07:34:10;101187.72;;;7.51;100.00
59757;BME280;45631;51.962;5.974;2023-04-25T07:36:38;101186.06;;;7.68;100.00
59757;BME280;45631;51.962;5.974;2023-04-25T07:39:06;101190.41;;;7.86;100.00
59757;BME280;45631;51.962;5.974;2023-04-25T07:41:35;101194.84;;;8.03;100.00
59757;BME280;45631;51.962;5.974;2023-04-25T07:44:05;101184.31;;;8.22;100.00
59757;BME280;45631;51.962;5.974;2023-04-25T07:46:33;101193.91;;;8.04;100.00
59757;BME280;45631;51.962;5.974;2023-04-25T07:49:01;101192.47;;;8.16;100.00
59757;BME280;45631;51.962;5.974;2023-04-25T07:51:29;101188.31;;;8.29;100.00
59757;BME280;45631;51.962;5.974;2023-04-25T07:53:58;101198.03;;;8.45;100.00
59757;BME280;45631;51.962;5.974;2023-04-25T07:56:26;101202.22;;;8.49;100.00
59757;BME280;45631;51.962;5.974;2023-04-25T07:59:05;101206.69;;;8.65;100.00
59757;BME280;45631;51.962;5.974;2023-04-25T08:01:34;101209.91;;;8.35;100.00
59757;BME280;45631;51.962;5.974;2023-04-25T08:04:02;101204.88;;;8.30;100.00
59757;BME280;45631;51.962;5.974;2023-04-25T08:06:30;101209.75;;;8.38;100.00
59757;BME280;45631;51.962;5.974;2023-04-25T08:08:59;101228.41;;;8.49;100.00
59757;BME280;45631;51.962;5.974;2023-04-25T08:11:27;101217.25;;;8.45;100.00
59757;BME280;45631;51.962;5.974;2023-04-25T08:13:56;101223.97;;;8.51;100.00
59757;BME280;45631;51.962;5.974;2023-04-25T08:16:25;101231.84;;;8.51;100.00
59757;BME280;45631;51.962;5.974;2023-04-25T08:18:53;101231.41;;;8.76;100.00
59757;BME280;45631;51.962;5.974;2023-04-25T08:21:22;101229.19;;;8.86;100.00
59757;BME280;45631;51.962;5.974;2023-04-25T08:23:50;101230.97;;;9.19;100.00
59757;BME280;45631;51.962;5.974;2023-04-25T08:26:18;101229.47;;;9.47;100.00
59757;BME280;45631;51.962;5.974;2023-04-25T08:28:46;101239.06;;;9.48;100.00
59757;BME280;45631;51.962;5.974;2023-04-25T08:31:15;101237.28;;;9.80;100.00
59757;BME280;45631;51.962;5.974;2023-04-25T08:33:44;101239.81;;;9.98;100.00
59757;BME280;45631;51.962;5.974;2023-04-25T08:36:12;101239.84;;;10.28;100.00
59757;BME280;45631;51.962;5.974;2023-04-25T08:38:57;101235.81;;;10.53;100.00
59757;BME280;45631;51.962;5.974;2023-04-25T08:41:28;101230.06;;;10.46;100.00
59757;BME280;45631;51.962;5.974;2023-04-25T08:43:56;101240.78;;;10.27;100.00
59757;BME280;45631;51.962;5.974;2023-04-25T08:46:27;101251.66;;;10.21;100.00
59757;BME280;45631;51.962;5.974;2023-04-25T08:49:01;101250.75;;;10.06;100.00
59757;BME280;45631;51.962;5.974;2023-04-25T08:51:31;101259.31;;;9.94;100.00
59757;BME280;45631;51.962;5.974;2023-04-25T08:54:08;101261.09;;;9.93;100.00
59757;BME280;45631;51.962;5.974;2023-04-25T08:56:57;101259.97;;;9.81;100.00
59757;BME280;45631;51.962;5.974;2023-04-25T08:59:28;101264.63;;;9.92;100.00
59757;BME280;45631;51.962;5.974;2023-04-25T09:02:00;101277.53;;;9.97;100.00
59757;BME280;45631;51.962;5.974;2023-04-25T09:04:33;101279.75;;;9.89;100.00
59757;BME280;45631;51.962;5.974;2023-04-25T09:07:01;101284.47;;;10.14;100.00
59757;BME280;45631;51.962;5.974;2023-04-25T09:09:30;101281.00;;;10.13;100.00
59757;BME280;45631;51.962;5.974;2023-04-25T09:11:58;101286.84;;;10.19;100.00
59757;BME280;45631;51.962;5.974;2023-04-25T09:14:28;101300.50;;;9.93;100.00
59757;BME280;45631;51.962;5.974;2023-04-25T09:17:01;101308.28;;;9.95;100.00
59757;BME280;45631;51.962;5.974;2023-04-25T09:19:31;101304.72;;;9.80;100.00
59757;BME280;45631;51.962;5.974;2023-04-25T09:22:04;101311.41;;;9.70;100.00
59757;BME280;45631;51.962;5.974;2023-04-25T09:24:37;101317.94;;;9.78;100.00
59757;BME280;45631;51.962;5.974;2023-04-25T09:27:05;101313.19;;;9.69;100.00
59757;BME280;45631;51.962;5.974;2023-04-25T09:29:37;101312.16;;;9.56;100.00
59757;BME280;45631;51.962;5.974;2023-04-25T09:32:17;101307.19;;;9.34;99.14
59757;BME280;45631;51.962;5.974;2023-04-25T09:34:47;101320.00;;;9.40;99.73
59757;BME280;45631;51.962;5.974;2023-04-25T09:37:21;101320.47;;;9.64;97.83
59757;BME280;45631;51.962;5.974;2023-04-25T09:39:53;101314.84;;;9.54;95.26
59757;BME280;45631;51.962;5.974;2023-04-25T09:42:22;101328.94;;;9.69;97.05
59757;BME280;45631;51.962;5.974;2023-04-25T09:44:52;101328.59;;;9.59;95.08
59757;BME280;45631;51.962;5.974;2023-04-25T09:47:25;101332.00;;;9.61;97.95
59757;BME280;45631;51.962;5.974;2023-04-25T09:49:57;101333.78;;;9.77;97.65
59757;BME280;45631;51.962;5.974;2023-04-25T09:52:27;101340.16;;;9.89;92.26
59757;BME280;45631;51.962;5.974;2023-04-25T09:54:55;101340.75;;;10.26;93.96
59757;BME280;45631;51.962;5.974;2023-04-25T09:57:24;101340.22;;;10.67;95.55
59757;BME280;45631;51.962;5.974;2023-04-25T09:59:54;101337.47;;;10.85;87.53
59757;BME280;45631;51.962;5.974;2023-04-25T10:02:25;101334.81;;;11.29;90.24
59757;BME280;45631;51.962;5.974;2023-04-25T10:04:55;101332.38;;;11.26;79.37
59757;BME280;45631;51.962;5.974;2023-04-25T10:07:25;101329.47;;;11.60;86.25
59757;BME280;45631;51.962;5.974;2023-04-25T10:09:59;101333.88;;;11.88;83.22
59757;BME280;45631;51.962;5.974;2023-04-25T10:12:29;101330.72;;;12.25;83.83
59757;BME280;45631;51.962;5.974;2023-04-25T10:14:58;101330.13;;;12.74;87.86
59757;BME280;45631;51.962;5.974;2023-04-25T10:17:26;101326.16;;;13.07;85.24
59757;BME280;45631;51.962;5.974;2023-04-25T10:19:55;101336.88;;;12.65;72.34
59757;BME280;45631;51.962;5.974;2023-04-25T10:22:28;101336.41;;;12.04;71.71
59757;BME280;45631;51.962;5.974;2023-04-25T10:24:59;101331.31;;;12.01;71.95
59757;BME280;45631;51.962;5.974;2023-04-25T10:27:31;101337.66;;;11.98;74.44
59757;BME280;45631;51.962;5.974;2023-04-25T10:30:04;101344.13;;;12.07;76.76
59757;BME280;45631;51.962;5.974;2023-04-25T10:32:33;101336.34;;;11.77;75.16
59757;BME280;45631;51.962;5.974;2023-04-25T10:35:13;101341.97;;;11.85;76.15
59757;BME280;45631;51.962;5.974;2023-04-25T10:37:59;101344.72;;;12.25;74.84
59757;BME280;45631;51.962;5.974;2023-04-25T10:40:29;101347.00;;;12.17;70.31
59757;BME280;45631;51.962;5.974;2023-04-25T10:45:59;101361.16;;;11.29;78.35
59757;BME280;45631;51.962;5.974;2023-04-25T10:48:28;101382.03;;;11.18;88.03
59757;BME280;45631;51.962;5.974;2023-04-25T10:51:09;101377.44;;;10.91;92.26
59757;BME280;45631;51.962;5.974;2023-04-25T10:53:37;101390.06;;;10.54;98.20
59757;BME280;45631;51.962;5.974;2023-04-25T10:56:16;101382.81;;;10.58;99.63
59757;BME280;45631;51.962;5.974;2023-04-25T10:58:45;101384.94;;;10.67;100.00
59757;BME280;45631;51.962;5.974;2023-04-25T11:01:20;101387.94;;;10.91;100.00
59757;BME280;45631;51.962;5.974;2023-04-25T11:03:49;101386.31;;;10.58;95.98
59757;BME280;45631;51.962;5.974;2023-04-25T11:06:30;101390.38;;;10.80;95.55
59757;BME280;45631;51.962;5.974;2023-04-25T11:09:01;101386.63;;;10.84;95.31
59757;BME280;45631;51.962;5.974;2023-04-25T11:11:31;101386.31;;;11.19;95.26
59757;BME280;45631;51.962;5.974;2023-04-25T11:13:59;101387.34;;;11.16;86.66
59757;BME280;45631;51.962;5.974;2023-04-25T11:16:30;101381.03;;;11.49;87.19
59757;BME280;45631;51.962;5.974;2023-04-25T11:18:59;101382.38;;;11.71;89.45
59757;BME280;45631;51.962;5.974;2023-04-25T11:21:27;101383.75;;;11.62;82.81
59757;BME280;45631;51.962;5.974;2023-04-25T11:23:59;101379.06;;;12.11;83.57
59757;BME280;45631;51.962;5.974;2023-04-25T11:26:28;101378.19;;;12.25;80.91
59757;BME280;45631;51.962;5.974;2023-04-25T11:28:59;101378.34;;;12.63;75.24
59757;BME280;45631;51.962;5.974;2023-04-25T11:31:29;101371.19;;;12.65;80.44
59757;BME280;45631;51.962;5.974;2023-04-25T11:33:57;101372.47;;;12.04;76.12
59757;BME280;45631;51.962;5.974;2023-04-25T11:36:26;101374.16;;;12.74;77.22
59757;BME280;45631;51.962;5.974;2023-04-25T11:38:54;101374.22;;;12.99;69.58
59757;BME280;45631;51.962;5.974;2023-04-25T11:41:22;101372.25;;;12.48;59.35
59757;BME280;45631;51.962;5.974;2023-04-25T11:43:51;101363.44;;;13.15;63.52
59757;BME280;45631;51.962;5.974;2023-04-25T11:46:23;101372.47;;;13.64;62.33
59757;BME280;45631;51.962;5.974;2023-04-25T11:48:51;101369.41;;;13.71;55.71
59757;BME280;45631;51.962;5.974;2023-04-25T11:51:19;101354.47;;;13.82;55.17
59757;BME280;45631;51.962;5.974;2023-04-25T11:53:47;101364.84;;;14.23;57.12
59757;BME280;45631;51.962;5.974;2023-04-25T11:56:16;101362.28;;;14.58;56.79
59757;BME280;45631;51.962;5.974;2023-04-25T11:58:57;101363.19;;;14.46;55.33
59757;BME280;45631;51.962;5.974;2023-04-25T12:01:28;101367.50;;;14.23;52.42
59757;BME280;45631;51.962;5.974;2023-04-25T12:04:10;101367.88;;;15.02;57.54
59757;BME280;45631;51.962;5.974;2023-04-25T12:06:40;101368.34;;;15.65;55.98
59757;BME280;45631;51.962;5.974;2023-04-25T12:09:11;101371.72;;;15.56;53.41
59757;BME280;45631;51.962;5.974;2023-04-25T12:11:41;101376.09;;;15.91;50.59
59757;BME280;45631;51.962;5.974;2023-04-25T12:14:10;101371.41;;;15.25;53.52
59757;BME280;45631;51.962;5.974;2023-04-25T12:16:43;101378.50;;;15.13;51.08
59757;BME280;45631;51.962;5.974;2023-04-25T12:19:13;101378.47;;;14.29;52.61
59757;BME280;45631;51.962;5.974;2023-04-25T12:21:42;101394.13;;;13.95;57.38
59757;BME280;45631;51.962;5.974;2023-04-25T12:24:26;101389.84;;;13.02;63.10
59757;BME280;45631;51.962;5.974;2023-04-25T12:26:59;101407.13;;;13.21;65.34
59757;BME280;45631;51.962;5.974;2023-04-25T12:29:32;101417.06;;;12.21;68.27
59757;BME280;45631;51.962;5.974;2023-04-25T12:32:16;101420.91;;;11.72;70.68
59757;BME280;45631;51.962;5.974;2023-04-25T12:34:45;101416.19;;;11.63;72.45
59757;BME280;45631;51.962;5.974;2023-04-25T12:37:13;101419.88;;;11.75;74.18
59757;BME280;45631;51.962;5.974;2023-04-25T12:39:42;101421.19;;;11.53;74.74
59757;BME280;45631;51.962;5.974;2023-04-25T12:42:10;101432.34;;;11.28;73.15
59757;BME280;45631;51.962;5.974;2023-04-25T12:44:39;101435.50;;;10.88;71.37
59757;BME280;45631;51.962;5.974;2023-04-25T12:47:11;101434.81;;;11.15;72.64
59757;BME280;45631;51.962;5.974;2023-04-25T12:49:41;101438.88;;;11.51;70.91
59757;BME280;45631;51.962;5.974;2023-04-25T12:52:09;101439.47;;;11.56;70.51
59757;BME280;45631;51.962;5.974;2023-04-25T12:54:37;101432.59;;;11.54;70.47
59757;BME280;45631;51.962;5.974;2023-04-25T12:57:05;101438.66;;;11.40;68.29
59757;BME280;45631;51.962;5.974;2023-04-25T12:59:33;101439.16;;;11.16;70.35
59757;BME280;45631;51.962;5.974;2023-04-25T13:02:04;101431.16;;;10.87;74.18
59757;BME280;45631;51.962;5.974;2023-04-25T13:04:32;101426.94;;;11.15;74.10
59757;BME280;45631;51.962;5.974;2023-04-25T13:07:02;101433.56;;;11.22;71.44